sensor_id;sensor_type;location;lat;lon;timestamp;P1;durP1;ratioP1;P2;durP2;ratioP2
11039;SDS011;5573;49.592;8.662;2023-04-24T00:00:49;275.65;;;260.42;;
11039;SDS011;5573;49.592;8.662;2023-04-24T00:03:17;288.25;;;272.90;;
11039;SDS011;5573;49.592;8.662;2023-04-24T00:05:47;273.60;;;258.88;;
11039;SDS011;5573;49.592;8.662;2023-04-24T00:08:15;279.08;;;263.92;;
11039;SDS011;5573;49.592;8.662;2023-04-24T00:10:44;280.65;;;265.48;;
11039;SDS011;5573;49.592;8.662;2023-04-24T00:13:13;283.52;;;268.48;;
11039;SDS011;5573;49.592;8.662;2023-04-24T00:15:41;287.98;;;272.60;;
11039;SDS011;5573;49.592;8.662;2023-04-24T00:18:09;287.77;;;272.40;;
11039;SDS011;5573;49.592;8.662;2023-04-24T00:20:37;290.17;;;274.33;;
11039;SDS011;5573;49.592;8.662;2023-04-24T00:23:06;290.17;;;274.52;;
11039;SDS011;5573;49.592;8.662;2023-04-24T00:25:33;295.05;;;279.02;;
11039;SDS011;5573;49.592;8.662;2023-04-24T00:28:02;285.48;;;270.17;;
11039;SDS011;5573;49.592;8.662;2023-04-24T00:30:30;301.25;;;285.00;;
11039;SDS011;5573;49.592;8.662;2023-04-24T00:32:58;289.40;;;273.67;;
11039;SDS011;5573;49.592;8.662;2023-04-24T00:35:26;288.08;;;272.25;;
11039;SDS011;5573;49.592;8.662;2023-04-24T00:37:54;287.13;;;271.70;;
11039;SDS011;5573;49.592;8.662;2023-04-24T00:40:22;283.13;;;267.73;;
11039;SDS011;5573;49.592;8.662;2023-04-24T00:42:50;285.85;;;270.63;;
11039;SDS011;5573;49.592;8.662;2023-04-24T00:45:19;297.08;;;281.15;;
11039;SDS011;5573;49.592;8.662;2023-04-24T00:47:47;299.70;;;283.90;;
11039;SDS011;5573;49.592;8.662;2023-04-24T00:50:16;291.13;;;275.65;;
11039;SDS011;5573;49.592;8.662;2023-04-24T00:52:43;276.00;;;261.02;;
11039;SDS011;5573;49.592;8.662;2023-04-24T00:55:11;302.33;;;286.00;;
11039;SDS011;5573;49.592;8.662;2023-04-24T00:57:39;297.63;;;281.58;;
11039;SDS011;5573;49.592;8.662;2023-04-24T01:00:07;301.25;;;285.20;;
11039;SDS011;5573;49.592;8.662;2023-04-24T01:02:39;290.17;;;274.27;;
11039;SDS011;5573;49.592;8.662;2023-04-24T01:05:10;285.13;;;270.17;;
11039;SDS011;5573;49.592;8.662;2023-04-24T01:07:39;275.88;;;260.63;;
11039;SDS011;5573;49.592;8.662;2023-04-24T01:10:10;296.05;;;280.27;;
11039;SDS011;5573;49.592;8.662;2023-04-24T01:12:38;274.60;;;259.75;;
11039;SDS011;5573;49.592;8.662;2023-04-24T01:15:06;287.27;;;272.08;;
11039;SDS011;5573;49.592;8.662;2023-04-24T01:17:35;292.60;;;276.83;;
11039;SDS011;5573;49.592;8.662;2023-04-24T01:20:06;306.00;;;289.30;;
11039;SDS011;5573;49.592;8.662;2023-04-24T01:22:36;280.10;;;265.15;;
11039;SDS011;5573;49.592;8.662;2023-04-24T01:25:04;284.52;;;269.15;;
11039;SDS011;5573;49.592;8.662;2023-04-24T01:27:32;280.40;;;265.50;;
11039;SDS011;5573;49.592;8.662;2023-04-24T01:30:00;292.33;;;276.58;;
11039;SDS011;5573;49.592;8.662;2023-04-24T01:32:29;277.17;;;261.83;;
11039;SDS011;5573;49.592;8.662;2023-04-24T01:34:57;293.73;;;277.95;;
11039;SDS011;5573;49.592;8.662;2023-04-24T01:37:25;289.83;;;274.75;;
11039;SDS011;5573;49.592;8.662;2023-04-24T01:39:55;289.63;;;273.85;;
11039;SDS011;5573;49.592;8.662;2023-04-24T01:42:24;289.75;;;274.00;;
11039;SDS011;5573;49.592;8.662;2023-04-24T01:44:53;302.17;;;285.55;;
11039;SDS011;5573;49.592;8.662;2023-04-24T01:47:22;298.73;;;282.10;;
11039;SDS011;5573;49.592;8.662;2023-04-24T01:49:51;280.67;;;265.48;;
11039;SDS011;5573;49.592;8.662;2023-04-24T01:52:19;290.13;;;274.42;;
11039;SDS011;5573;49.592;8.662;2023-04-24T01:54:46;290.08;;;274.23;;
11039;SDS011;5573;49.592;8.662;2023-04-24T01:57:17;283.02;;;267.67;;
11039;SDS011;5573;49.592;8.662;2023-04-24T01:59:45;301.95;;;285.05;;
11039;SDS011;5573;49.592;8.662;2023-04-24T02:02:13;288.00;;;273.02;;
11039;SDS011;5573;49.592;8.662;2023-04-24T02:04:41;305.67;;;288.88;;
11039;SDS011;5573;49.592;8.662;2023-04-24T02:07:09;298.55;;;282.58;;
11039;SDS011;5573;49.592;8.662;2023-04-24T02:09:37;290.33;;;274.63;;
11039;SDS011;5573;49.592;8.662;2023-04-24T02:12:05;308.05;;;291.55;;
11039;SDS011;5573;49.592;8.662;2023-04-24T02:14:34;299.08;;;282.65;;
11039;SDS011;5573;49.592;8.662;2023-04-24T02:17:02;288.33;;;272.52;;
11039;SDS011;5573;49.592;8.662;2023-04-24T02:19:31;302.48;;;286.38;;
11039;SDS011;5573;49.592;8.662;2023-04-24T02:21:58;293.80;;;277.55;;
11039;SDS011;5573;49.592;8.662;2023-04-24T02:24:26;305.90;;;289.63;;
11039;SDS011;5573;49.592;8.662;2023-04-24T02:26:54;300.58;;;284.52;;
11039;SDS011;5573;49.592;8.662;2023-04-24T02:29:22;297.02;;;281.10;;
11039;SDS011;5573;49.592;8.662;2023-04-24T02:31:51;303.00;;;286.55;;
11039;SDS011;5573;49.592;8.662;2023-04-24T02:34:18;307.60;;;290.33;;
11039;SDS011;5573;49.592;8.662;2023-04-24T02:36:46;297.90;;;281.95;;
11039;SDS011;5573;49.592;8.662;2023-04-24T02:39:14;285.02;;;269.63;;
11039;SDS011;5573;49.592;8.662;2023-04-24T02:41:42;293.60;;;277.75;;
11039;SDS011;5573;49.592;8.662;2023-04-24T02:44:15;256.95;;;243.27;;
11039;SDS011;5573;49.592;8.662;2023-04-24T02:46:43;285.23;;;269.75;;
11039;SDS011;5573;49.592;8.662;2023-04-24T02:49:12;286.98;;;270.70;;
11039;SDS011;5573;49.592;8.662;2023-04-24T02:51:40;270.40;;;255.70;;
11039;SDS011;5573;49.592;8.662;2023-04-24T02:54:08;264.70;;;250.38;;
11039;SDS011;5573;49.592;8.662;2023-04-24T02:56:36;293.05;;;277.02;;
11039;SDS011;5573;49.592;8.662;2023-04-24T02:59:06;300.70;;;284.17;;
11039;SDS011;5573;49.592;8.662;2023-04-24T03:01:33;305.95;;;289.40;;
11039;SDS011;5573;49.592;8.662;2023-04-24T03:04:01;290.95;;;275.02;;
11039;SDS011;5573;49.592;8.662;2023-04-24T03:06:31;293.92;;;278.27;;
11039;SDS011;5573;49.592;8.662;2023-04-24T03:09:01;296.77;;;280.47;;
11039;SDS011;5573;49.592;8.662;2023-04-24T03:11:30;292.07;;;276.20;;
11039;SDS011;5573;49.592;8.662;2023-04-24T03:13:59;276.23;;;260.90;;
11039;SDS011;5573;49.592;8.662;2023-04-24T03:16:27;288.93;;;273.10;;
11039;SDS011;5573;49.592;8.662;2023-04-24T03:18:54;296.67;;;280.53;;
11039;SDS011;5573;49.592;8.662;2023-04-24T03:21:25;297.23;;;281.10;;
11039;SDS011;5573;49.592;8.662;2023-04-24T03:23:54;299.07;;;282.77;;
11039;SDS011;5573;49.592;8.662;2023-04-24T03:26:22;291.13;;;275.87;;
11039;SDS011;5573;49.592;8.662;2023-04-24T03:29:03;289.17;;;273.43;;
11039;SDS011;5573;49.592;8.662;2023-04-24T03:31:30;295.27;;;279.27;;
11039;SDS011;5573;49.592;8.662;2023-04-24T03:33:58;306.17;;;289.30;;
11039;SDS011;5573;49.592;8.662;2023-04-24T03:36:26;295.90;;;279.63;;
11039;SDS011;5573;49.592;8.662;2023-04-24T03:38:56;307.13;;;290.20;;
11039;SDS011;5573;49.592;8.662;2023-04-24T03:41:27;293.37;;;277.40;;
11039;SDS011;5573;49.592;8.662;2023-04-24T03:44:08;276.47;;;261.47;;
11039;SDS011;5573;49.592;8.662;2023-04-24T03:46:36;296.53;;;280.13;;
11039;SDS011;5573;49.592;8.662;2023-04-24T03:49:05;304.30;;;287.57;;
11039;SDS011;5573;49.592;8.662;2023-04-24T03:51:36;285.23;;;269.27;;
11039;SDS011;5573;49.592;8.662;2023-04-24T03:54:18;293.83;;;277.33;;
11039;SDS011;5573;49.592;8.662;2023-04-24T03:56:46;300.97;;;284.77;;
11039;SDS011;5573;49.592;8.662;2023-04-24T03:59:13;301.03;;;284.57;;
11039;SDS011;5573;49.592;8.662;2023-04-24T04:01:45;304.40;;;287.83;;
11039;SDS011;5573;49.592;8.662;2023-04-24T04:04:15;286.67;;;270.93;;
11039;SDS011;5573;49.592;8.662;2023-04-24T04:06:44;309.80;;;292.47;;
11039;SDS011;5573;49.592;8.662;2023-04-24T04:09:13;306.00;;;289.13;;
11039;SDS011;5573;49.592;8.662;2023-04-24T04:11:42;298.13;;;281.67;;
11039;SDS011;5573;49.592;8.662;2023-04-24T04:14:11;272.83;;;258.20;;
11039;SDS011;5573;49.592;8.662;2023-04-24T04:16:41;300.43;;;283.80;;
11039;SDS011;5573;49.592;8.662;2023-04-24T04:19:10;286.03;;;270.33;;
11039;SDS011;5573;49.592;8.662;2023-04-24T04:21:38;295.83;;;279.73;;
11039;SDS011;5573;49.592;8.662;2023-04-24T04:24:17;287.33;;;271.63;;
11039;SDS011;5573;49.592;8.662;2023-04-24T04:26:46;269.57;;;255.23;;
11039;SDS011;5573;49.592;8.662;2023-04-24T04:29:23;277.83;;;262.87;;
11039;SDS011;5573;49.592;8.662;2023-04-24T04:31:52;276.20;;;261.37;;
11039;SDS011;5573;49.592;8.662;2023-04-24T04:34:20;259.47;;;245.33;;
11039;SDS011;5573;49.592;8.662;2023-04-24T04:36:49;257.53;;;243.13;;
11039;SDS011;5573;49.592;8.662;2023-04-24T04:39:28;261.60;;;247.47;;
11039;SDS011;5573;49.592;8.662;2023-04-24T04:42:01;255.67;;;241.93;;
11039;SDS011;5573;49.592;8.662;2023-04-24T04:44:38;261.70;;;247.47;;
11039;SDS011;5573;49.592;8.662;2023-04-24T04:47:09;253.03;;;239.57;;
11039;SDS011;5573;49.592;8.662;2023-04-24T04:49:37;267.90;;;253.03;;
11039;SDS011;5573;49.592;8.662;2023-04-24T04:52:11;254.77;;;240.60;;
11039;SDS011;5573;49.592;8.662;2023-04-24T04:54:39;248.27;;;234.60;;
11039;SDS011;5573;49.592;8.662;2023-04-24T04:57:08;252.20;;;238.53;;
11039;SDS011;5573;49.592;8.662;2023-04-24T04:59:36;262.50;;;248.23;;
11039;SDS011;5573;49.592;8.662;2023-04-24T05:02:10;258.50;;;244.57;;
11039;SDS011;5573;49.592;8.662;2023-04-24T05:04:38;252.90;;;239.23;;
11039;SDS011;5573;49.592;8.662;2023-04-24T05:07:06;245.70;;;232.40;;
11039;SDS011;5573;49.592;8.662;2023-04-24T05:09:38;247.87;;;234.47;;
11039;SDS011;5573;49.592;8.662;2023-04-24T05:12:06;249.77;;;236.10;;
11039;SDS011;5573;49.592;8.662;2023-04-24T05:14:43;263.47;;;249.07;;
11039;SDS011;5573;49.592;8.662;2023-04-24T05:17:11;236.40;;;223.50;;
11039;SDS011;5573;49.592;8.662;2023-04-24T05:19:39;234.07;;;221.13;;
11039;SDS011;5573;49.592;8.662;2023-04-24T05:22:07;253.10;;;239.23;;
11039;SDS011;5573;49.592;8.662;2023-04-24T05:24:44;254.80;;;240.93;;
11039;SDS011;5573;49.592;8.662;2023-04-24T05:27:22;259.37;;;244.90;;
11039;SDS011;5573;49.592;8.662;2023-04-24T05:29:51;270.07;;;255.23;;
11039;SDS011;5573;49.592;8.662;2023-04-24T05:32:19;257.87;;;243.77;;
11039;SDS011;5573;49.592;8.662;2023-04-24T05:34:47;258.17;;;244.43;;
11039;SDS011;5573;49.592;8.662;2023-04-24T05:37:14;268.07;;;253.70;;
11039;SDS011;5573;49.592;8.662;2023-04-24T05:39:42;256.00;;;242.17;;
11039;SDS011;5573;49.592;8.662;2023-04-24T05:42:10;284.13;;;269.10;;
11039;SDS011;5573;49.592;8.662;2023-04-24T05:44:38;253.33;;;239.67;;
11039;SDS011;5573;49.592;8.662;2023-04-24T05:47:07;280.77;;;265.73;;
11039;SDS011;5573;49.592;8.662;2023-04-24T05:49:35;268.73;;;254.07;;
11039;SDS011;5573;49.592;8.662;2023-04-24T05:52:03;255.23;;;241.33;;
11039;SDS011;5573;49.592;8.662;2023-04-24T05:54:32;274.37;;;259.57;;
11039;SDS011;5573;49.592;8.662;2023-04-24T05:57:00;244.37;;;231.20;;
11039;SDS011;5573;49.592;8.662;2023-04-24T05:59:43;253.23;;;239.57;;
11039;SDS011;5573;49.592;8.662;2023-04-24T06:02:13;268.10;;;253.53;;
11039;SDS011;5573;49.592;8.662;2023-04-24T06:04:41;262.40;;;248.03;;
11039;SDS011;5573;49.592;8.662;2023-04-24T06:07:09;248.10;;;234.33;;
11039;SDS011;5573;49.592;8.662;2023-04-24T06:09:41;243.13;;;229.70;;
11039;SDS011;5573;49.592;8.662;2023-04-24T06:12:09;249.00;;;235.40;;
11039;SDS011;5573;49.592;8.662;2023-04-24T06:14:54;248.73;;;235.13;;
11039;SDS011;5573;49.592;8.662;2023-04-24T06:17:47;243.07;;;229.67;;
11039;SDS011;5573;49.592;8.662;2023-04-24T06:20:17;244.83;;;231.27;;
11039;SDS011;5573;49.592;8.662;2023-04-24T06:22:45;251.83;;;238.43;;
11039;SDS011;5573;49.592;8.662;2023-04-24T06:25:12;252.73;;;239.00;;
11039;SDS011;5573;49.592;8.662;2023-04-24T06:27:40;251.97;;;238.17;;
11039;SDS011;5573;49.592;8.662;2023-04-24T06:30:08;251.47;;;237.73;;
11039;SDS011;5573;49.592;8.662;2023-04-24T06:32:37;245.80;;;232.40;;
11039;SDS011;5573;49.592;8.662;2023-04-24T06:35:07;249.17;;;235.93;;
11039;SDS011;5573;49.592;8.662;2023-04-24T06:37:37;266.90;;;252.43;;
11039;SDS011;5573;49.592;8.662;2023-04-24T06:40:05;231.10;;;218.70;;
11039;SDS011;5573;49.592;8.662;2023-04-24T06:42:34;255.40;;;241.77;;
11039;SDS011;5573;49.592;8.662;2023-04-24T06:45:03;265.67;;;251.43;;
11039;SDS011;5573;49.592;8.662;2023-04-24T06:47:31;250.37;;;237.03;;
11039;SDS011;5573;49.592;8.662;2023-04-24T06:49:59;270.73;;;256.27;;
11039;SDS011;5573;49.592;8.662;2023-04-24T06:52:28;266.70;;;252.13;;
11039;SDS011;5573;49.592;8.662;2023-04-24T06:54:59;258.93;;;244.83;;
11039;SDS011;5573;49.592;8.662;2023-04-24T06:57:28;275.83;;;260.57;;
11039;SDS011;5573;49.592;8.662;2023-04-24T06:59:55;271.67;;;257.13;;
11039;SDS011;5573;49.592;8.662;2023-04-24T07:02:23;262.00;;;247.73;;
11039;SDS011;5573;49.592;8.662;2023-04-24T07:04:52;281.90;;;266.67;;
11039;SDS011;5573;49.592;8.662;2023-04-24T07:07:20;262.00;;;248.23;;
11039;SDS011;5573;49.592;8.662;2023-04-24T07:09:52;260.80;;;246.40;;
11039;SDS011;5573;49.592;8.662;2023-04-24T07:12:20;258.00;;;244.00;;
11039;SDS011;5573;49.592;8.662;2023-04-24T07:14:48;262.10;;;247.97;;
11039;SDS011;5573;49.592;8.662;2023-04-24T07:17:15;259.37;;;245.27;;
11039;SDS011;5573;49.592;8.662;2023-04-24T07:19:43;254.23;;;240.53;;
11039;SDS011;5573;49.592;8.662;2023-04-24T07:22:11;262.23;;;247.83;;
11039;SDS011;5573;49.592;8.662;2023-04-24T07:24:43;250.87;;;237.47;;
11039;SDS011;5573;49.592;8.662;2023-04-24T07:27:12;255.20;;;241.57;;
11039;SDS011;5573;49.592;8.662;2023-04-24T07:29:41;238.23;;;225.47;;
11039;SDS011;5573;49.592;8.662;2023-04-24T07:32:10;259.33;;;245.53;;
11039;SDS011;5573;49.592;8.662;2023-04-24T07:34:38;248.97;;;235.67;;
11039;SDS011;5573;49.592;8.662;2023-04-24T07:37:06;249.40;;;235.83;;
11039;SDS011;5573;49.592;8.662;2023-04-24T07:39:33;249.60;;;236.00;;
11039;SDS011;5573;49.592;8.662;2023-04-24T07:42:01;277.57;;;262.83;;
11039;SDS011;5573;49.592;8.662;2023-04-24T07:44:31;268.97;;;254.67;;
11039;SDS011;5573;49.592;8.662;2023-04-24T07:46:58;276.17;;;261.13;;
11039;SDS011;5573;49.592;8.662;2023-04-24T07:49:27;289.53;;;274.03;;
11039;SDS011;5573;49.592;8.662;2023-04-24T07:51:55;285.13;;;269.67;;
11039;SDS011;5573;49.592;8.662;2023-04-24T07:54:22;295.53;;;279.23;;
11039;SDS011;5573;49.592;8.662;2023-04-24T07:56:50;279.97;;;264.60;;
11039;SDS011;5573;49.592;8.662;2023-04-24T07:59:18;279.10;;;264.13;;
11039;SDS011;5573;49.592;8.662;2023-04-24T08:01:47;275.27;;;260.57;;
11039;SDS011;5573;49.592;8.662;2023-04-24T08:04:14;283.43;;;268.33;;
11039;SDS011;5573;49.592;8.662;2023-04-24T08:06:42;286.70;;;270.10;;
11039;SDS011;5573;49.592;8.662;2023-04-24T08:09:10;277.55;;;262.48;;
11039;SDS011;5573;49.592;8.662;2023-04-24T08:11:38;303.88;;;287.27;;
11039;SDS011;5573;49.592;8.662;2023-04-24T08:14:05;286.05;;;270.27;;
11039;SDS011;5573;49.592;8.662;2023-04-24T08:16:33;278.55;;;263.75;;
11039;SDS011;5573;49.592;8.662;2023-04-24T08:19:03;281.30;;;266.33;;
11039;SDS011;5573;49.592;8.662;2023-04-24T08:21:31;253.98;;;240.27;;
11039;SDS011;5573;49.592;8.662;2023-04-24T08:23:58;268.77;;;254.20;;
11039;SDS011;5573;49.592;8.662;2023-04-24T08:26:27;266.03;;;251.60;;
11039;SDS011;5573;49.592;8.662;2023-04-24T08:28:55;259.43;;;245.53;;
11039;SDS011;5573;49.592;8.662;2023-04-24T08:31:23;254.20;;;240.47;;
11039;SDS011;5573;49.592;8.662;2023-04-24T08:33:51;257.17;;;243.45;;
11039;SDS011;5573;49.592;8.662;2023-04-24T08:36:20;255.18;;;241.30;;
11039;SDS011;5573;49.592;8.662;2023-04-24T08:38:53;252.83;;;239.13;;
11039;SDS011;5573;49.592;8.662;2023-04-24T08:41:21;241.55;;;228.38;;
11039;SDS011;5573;49.592;8.662;2023-04-24T08:43:52;257.92;;;244.00;;
11039;SDS011;5573;49.592;8.662;2023-04-24T08:46:21;274.70;;;260.02;;
11039;SDS011;5573;49.592;8.662;2023-04-24T08:48:50;235.20;;;222.38;;
11039;SDS011;5573;49.592;8.662;2023-04-24T08:51:20;250.02;;;236.70;;
11039;SDS011;5573;49.592;8.662;2023-04-24T08:53:49;266.42;;;252.35;;
11039;SDS011;5573;49.592;8.662;2023-04-24T08:56:19;268.40;;;254.10;;
11039;SDS011;5573;49.592;8.662;2023-04-24T08:58:50;284.83;;;269.95;;
11039;SDS011;5573;49.592;8.662;2023-04-24T09:01:18;293.15;;;277.27;;
11039;SDS011;5573;49.592;8.662;2023-04-24T09:03:47;285.83;;;270.85;;
11039;SDS011;5573;49.592;8.662;2023-04-24T09:06:16;278.80;;;264.33;;
11039;SDS011;5573;49.592;8.662;2023-04-24T09:08:46;283.63;;;268.65;;
11039;SDS011;5573;49.592;8.662;2023-04-24T09:11:17;287.27;;;272.40;;
11039;SDS011;5573;49.592;8.662;2023-04-24T09:13:45;272.65;;;258.40;;
11039;SDS011;5573;49.592;8.662;2023-04-24T09:16:13;256.08;;;242.52;;
11039;SDS011;5573;49.592;8.662;2023-04-24T09:18:41;274.40;;;259.42;;
11039;SDS011;5573;49.592;8.662;2023-04-24T09:21:09;263.98;;;250.30;;
11039;SDS011;5573;49.592;8.662;2023-04-24T09:23:37;278.25;;;263.70;;
11039;SDS011;5573;49.592;8.662;2023-04-24T09:26:07;264.00;;;250.23;;
11039;SDS011;5573;49.592;8.662;2023-04-24T09:28:38;267.08;;;252.82;;
11039;SDS011;5573;49.592;8.662;2023-04-24T09:31:08;275.35;;;260.85;;
11039;SDS011;5573;49.592;8.662;2023-04-24T09:33:36;269.33;;;254.88;;
11039;SDS011;5573;49.592;8.662;2023-04-24T09:36:04;272.90;;;258.67;;
11039;SDS011;5573;49.592;8.662;2023-04-24T09:38:33;269.55;;;255.05;;
11039;SDS011;5573;49.592;8.662;2023-04-24T09:41:04;270.55;;;256.05;;
11039;SDS011;5573;49.592;8.662;2023-04-24T09:43:34;264.70;;;250.60;;
11039;SDS011;5573;49.592;8.662;2023-04-24T09:46:04;268.85;;;254.55;;
11039;SDS011;5573;49.592;8.662;2023-04-24T09:48:34;250.60;;;237.10;;
11039;SDS011;5573;49.592;8.662;2023-04-24T09:51:03;274.15;;;259.50;;
11039;SDS011;5573;49.592;8.662;2023-04-24T09:53:33;262.35;;;248.52;;
11039;SDS011;5573;49.592;8.662;2023-04-24T09:56:06;249.00;;;235.65;;
11039;SDS011;5573;49.592;8.662;2023-04-24T09:58:36;241.18;;;228.43;;
11039;SDS011;5573;49.592;8.662;2023-04-24T10:01:04;267.70;;;253.40;;
11039;SDS011;5573;49.592;8.662;2023-04-24T10:03:32;253.35;;;239.88;;
11039;SDS011;5573;49.592;8.662;2023-04-24T10:06:01;257.40;;;243.68;;
11039;SDS011;5573;49.592;8.662;2023-04-24T10:08:35;247.45;;;234.07;;
11039;SDS011;5573;49.592;8.662;2023-04-24T10:11:03;259.33;;;245.05;;
11039;SDS011;5573;49.592;8.662;2023-04-24T10:13:31;245.18;;;232.18;;
11039;SDS011;5573;49.592;8.662;2023-04-24T10:16:01;236.40;;;223.85;;
11039;SDS011;5573;49.592;8.662;2023-04-24T10:18:30;253.90;;;240.32;;
11039;SDS011;5573;49.592;8.662;2023-04-24T10:20:59;236.52;;;223.60;;
11039;SDS011;5573;49.592;8.662;2023-04-24T10:23:28;235.52;;;222.63;;
11039;SDS011;5573;49.592;8.662;2023-04-24T10:25:58;265.48;;;251.15;;
11039;SDS011;5573;49.592;8.662;2023-04-24T10:28:27;275.10;;;260.30;;
11039;SDS011;5573;49.592;8.662;2023-04-24T10:30:57;263.73;;;249.63;;
11039;SDS011;5573;49.592;8.662;2023-04-24T10:33:27;264.52;;;250.43;;
11039;SDS011;5573;49.592;8.662;2023-04-24T10:35:56;274.67;;;260.33;;
11039;SDS011;5573;49.592;8.662;2023-04-24T10:38:26;284.30;;;269.33;;
11039;SDS011;5573;49.592;8.662;2023-04-24T10:40:57;312.60;;;296.15;;
11039;SDS011;5573;49.592;8.662;2023-04-24T10:43:34;275.10;;;260.45;;
11039;SDS011;5573;49.592;8.662;2023-04-24T10:46:02;276.45;;;261.73;;
11039;SDS011;5573;49.592;8.662;2023-04-24T10:48:33;278.05;;;263.63;;
11039;SDS011;5573;49.592;8.662;2023-04-24T10:51:01;266.33;;;252.23;;
11039;SDS011;5573;49.592;8.662;2023-04-24T10:53:29;279.60;;;264.73;;
11039;SDS011;5573;49.592;8.662;2023-04-24T10:55:58;283.83;;;268.77;;
11039;SDS011;5573;49.592;8.662;2023-04-24T10:58:35;288.58;;;273.30;;
11039;SDS011;5573;49.592;8.662;2023-04-24T11:01:06;288.25;;;272.73;;
11039;SDS011;5573;49.592;8.662;2023-04-24T11:03:35;276.35;;;261.58;;
11039;SDS011;5573;49.592;8.662;2023-04-24T11:06:04;275.60;;;260.80;;
11039;SDS011;5573;49.592;8.662;2023-04-24T11:08:38;297.67;;;281.90;;
11039;SDS011;5573;49.592;8.662;2023-04-24T11:11:10;265.27;;;251.23;;
11039;SDS011;5573;49.592;8.662;2023-04-24T11:16:30;261.42;;;247.57;;
11039;SDS011;5573;49.592;8.662;2023-04-24T11:19:02;273.88;;;259.23;;
11039;SDS011;5573;49.592;8.662;2023-04-24T11:21:32;269.50;;;255.13;;
11039;SDS011;5573;49.592;8.662;2023-04-24T11:24:25;267.17;;;253.00;;
11039;SDS011;5573;49.592;8.662;2023-04-24T11:26:55;241.57;;;228.68;;
11039;SDS011;5573;49.592;8.662;2023-04-24T11:29:38;261.63;;;247.70;;
11039;SDS011;5573;49.592;8.662;2023-04-24T11:32:22;260.60;;;246.85;;
11039;SDS011;5573;49.592;8.662;2023-04-24T11:34:53;252.38;;;238.73;;
11039;SDS011;5573;49.592;8.662;2023-04-24T11:37:22;245.93;;;232.85;;
11039;SDS011;5573;49.592;8.662;2023-04-24T11:39:51;264.63;;;250.65;;
11039;SDS011;5573;49.592;8.662;2023-04-24T11:42:20;269.45;;;255.18;;
11039;SDS011;5573;49.592;8.662;2023-04-24T11:44:51;280.38;;;265.60;;
11039;SDS011;5573;49.592;8.662;2023-04-24T11:47:19;292.80;;;277.48;;
11039;SDS011;5573;49.592;8.662;2023-04-24T11:49:50;289.08;;;273.55;;
11039;SDS011;5573;49.592;8.662;2023-04-24T11:52:19;285.95;;;270.98;;
11039;SDS011;5573;49.592;8.662;2023-04-24T11:54:47;271.55;;;256.95;;
11039;SDS011;5573;49.592;8.662;2023-04-24T11:57:16;290.00;;;274.95;;
11039;SDS011;5573;49.592;8.662;2023-04-24T11:59:48;272.98;;;258.55;;
11039;SDS011;5573;49.592;8.662;2023-04-24T12:02:22;271.23;;;256.90;;
11039;SDS011;5573;49.592;8.662;2023-04-24T12:04:51;279.92;;;265.00;;
11039;SDS011;5573;49.592;8.662;2023-04-24T12:07:22;287.10;;;271.98;;
11039;SDS011;5573;49.592;8.662;2023-04-24T12:09:55;296.88;;;281.02;;
11039;SDS011;5573;49.592;8.662;2023-04-24T12:12:26;291.52;;;275.92;;
11039;SDS011;5573;49.592;8.662;2023-04-24T12:14:55;294.13;;;278.85;;
11039;SDS011;5573;49.592;8.662;2023-04-24T12:17:24;298.70;;;283.08;;
11039;SDS011;5573;49.592;8.662;2023-04-24T12:19:57;294.45;;;278.88;;
11039;SDS011;5573;49.592;8.662;2023-04-24T12:22:28;301.67;;;286.15;;
11039;SDS011;5573;49.592;8.662;2023-04-24T12:25:11;286.38;;;271.40;;
11039;SDS011;5573;49.592;8.662;2023-04-24T12:27:39;281.15;;;266.45;;
11039;SDS011;5573;49.592;8.662;2023-04-24T12:30:10;276.08;;;261.80;;
11039;SDS011;5573;49.592;8.662;2023-04-24T12:32:41;249.73;;;236.65;;
11039;SDS011;5573;49.592;8.662;2023-04-24T12:35:09;268.50;;;254.43;;
11039;SDS011;5573;49.592;8.662;2023-04-24T12:37:41;245.23;;;232.27;;
11039;SDS011;5573;49.592;8.662;2023-04-24T12:40:13;249.55;;;236.55;;
11039;SDS011;5573;49.592;8.662;2023-04-24T12:42:42;272.23;;;258.27;;
11039;SDS011;5573;49.592;8.662;2023-04-24T12:45:10;258.67;;;245.35;;
11039;SDS011;5573;49.592;8.662;2023-04-24T12:47:39;273.90;;;259.48;;
11039;SDS011;5573;49.592;8.662;2023-04-24T12:50:08;264.67;;;250.93;;
11039;SDS011;5573;49.592;8.662;2023-04-24T12:52:37;275.27;;;261.08;;
11039;SDS011;5573;49.592;8.662;2023-04-24T12:55:06;270.10;;;255.88;;
11039;SDS011;5573;49.592;8.662;2023-04-24T12:57:35;291.50;;;276.27;;
11039;SDS011;5573;49.592;8.662;2023-04-24T13:00:05;288.30;;;273.23;;
11039;SDS011;5573;49.592;8.662;2023-04-24T13:02:35;276.95;;;262.65;;
11039;SDS011;5573;49.592;8.662;2023-04-24T13:05:04;269.95;;;255.65;;
11039;SDS011;5573;49.592;8.662;2023-04-24T13:07:33;280.92;;;266.40;;
11039;SDS011;5573;49.592;8.662;2023-04-24T13:10:02;266.20;;;252.38;;
11039;SDS011;5573;49.592;8.662;2023-04-24T13:12:30;256.60;;;243.30;;
11039;SDS011;5573;49.592;8.662;2023-04-24T13:14:58;273.70;;;259.25;;
11039;SDS011;5573;49.592;8.662;2023-04-24T13:17:26;257.35;;;243.63;;
11039;SDS011;5573;49.592;8.662;2023-04-24T13:19:54;245.07;;;232.32;;
11039;SDS011;5573;49.592;8.662;2023-04-24T13:22:22;256.60;;;243.23;;
11039;SDS011;5573;49.592;8.662;2023-04-24T13:24:50;258.50;;;245.00;;
11039;SDS011;5573;49.592;8.662;2023-04-24T13:27:19;255.50;;;242.30;;
11039;SDS011;5573;49.592;8.662;2023-04-24T13:29:47;259.00;;;245.57;;
11039;SDS011;5573;49.592;8.662;2023-04-24T13:32:14;261.60;;;248.10;;
11039;SDS011;5573;49.592;8.662;2023-04-24T13:34:42;285.73;;;270.73;;
11039;SDS011;5573;49.592;8.662;2023-04-24T13:37:10;267.50;;;253.75;;
11039;SDS011;5573;49.592;8.662;2023-04-24T13:39:39;276.73;;;262.50;;
11039;SDS011;5573;49.592;8.662;2023-04-24T13:42:07;269.92;;;255.82;;
11039;SDS011;5573;49.592;8.662;2023-04-24T13:44:36;252.30;;;239.40;;
11039;SDS011;5573;49.592;8.662;2023-04-24T13:47:04;242.15;;;229.35;;
11039;SDS011;5573;49.592;8.662;2023-04-24T13:49:32;255.50;;;242.15;;
11039;SDS011;5573;49.592;8.662;2023-04-24T13:52:00;254.57;;;241.30;;
11039;SDS011;5573;49.592;8.662;2023-04-24T13:54:29;248.07;;;235.02;;
11039;SDS011;5573;49.592;8.662;2023-04-24T13:56:57;250.02;;;236.80;;
11039;SDS011;5573;49.592;8.662;2023-04-24T13:59:25;242.43;;;229.73;;
11039;SDS011;5573;49.592;8.662;2023-04-24T14:01:54;260.98;;;247.05;;
11039;SDS011;5573;49.592;8.662;2023-04-24T14:04:22;260.48;;;246.93;;
11039;SDS011;5573;49.592;8.662;2023-04-24T14:06:51;260.17;;;246.57;;
11039;SDS011;5573;49.592;8.662;2023-04-24T14:09:18;259.00;;;245.23;;
11039;SDS011;5573;49.592;8.662;2023-04-24T14:11:46;247.93;;;235.02;;
11039;SDS011;5573;49.592;8.662;2023-04-24T14:14:14;247.45;;;234.43;;
11039;SDS011;5573;49.592;8.662;2023-04-24T14:16:42;253.52;;;240.10;;
11039;SDS011;5573;49.592;8.662;2023-04-24T14:19:11;273.15;;;258.83;;
11039;SDS011;5573;49.592;8.662;2023-04-24T14:21:38;228.30;;;216.18;;
11039;SDS011;5573;49.592;8.662;2023-04-24T14:24:06;258.40;;;244.85;;